sensor_id;sensor_type;location;lat;lon;timestamp;pressure;altitude;pressure_sealevel;temperature;humidity
24013;BME280;12220;50.194;18.948;2024-02-26T00:01:05;100913.60;;;5.19;65.95
24013;BME280;12220;50.194;18.948;2024-02-26T00:03:11;100909.11;;;5.18;65.99
24013;BME280;12220;50.194;18.948;2024-02-26T00:05:13;100905.46;;;5.19;66.06
24013;BME280;12220;50.194;18.948;2024-02-26T00:07:18;100900.93;;;5.20;66.07
24013;BME280;12220;50.194;18.948;2024-02-26T00:09:20;100901.80;;;5.20;66.02
24013;BME280;12220;50.194;18.948;2024-02-26T00:11:21;100908.17;;;5.19;65.86
24013;BME280;12220;50.194;18.948;2024-02-26T00:13:22;100905.59;;;5.16;65.78
24013;BME280;12220;50.194;18.948;2024-02-26T00:15:33;100807.19;;;4.51;65.68
24013;BME280;12220;50.194;18.948;2024-02-26T00:17:36;100902.55;;;5.03;65.81
24013;BME280;12220;50.194;18.948;2024-02-26T00:19:38;100906.34;;;4.99;65.86
24013;BME280;12220;50.194;18.948;2024-02-26T00:21:40;100902.09;;;4.94;65.89
24013;BME280;12220;50.194;18.948;2024-02-26T00:23:53;100906.90;;;4.87;65.92
24013;BME280;12220;50.194;18.948;2024-02-26T00:25:54;100908.05;;;4.81;65.99
24013;BME280;12220;50.194;18.948;2024-02-26T00:27:56;100902.96;;;4.74;66.07
24013;BME280;12220;50.194;18.948;2024-02-26T00:29:58;100900.45;;;4.69;66.16
24013;BME280;12220;50.194;18.948;2024-02-26T00:32:04;100904.31;;;4.63;66.16
24013;BME280;12220;50.194;18.948;2024-02-26T00:34:06;100907.19;;;4.59;66.36
24013;BME280;12220;50.194;18.948;2024-02-26T00:36:07;100905.59;;;4.54;66.62
24013;BME280;12220;50.194;18.948;2024-02-26T00:38:08;100912.95;;;4.51;66.55
24013;BME280;12220;50.194;18.948;2024-02-26T00:40:20;100911.24;;;4.48;66.63
24013;BME280;12220;50.194;18.948;2024-02-26T00:42:21;100909.50;;;4.47;66.71
24013;BME280;12220;50.194;18.948;2024-02-26T00:44:22;100913.15;;;4.46;66.89
24013;BME280;12220;50.194;18.948;2024-02-26T00:46:24;100910.37;;;4.48;66.97
24013;BME280;12220;50.194;18.948;2024-02-26T00:48:35;100916.73;;;4.47;66.84
24013;BME280;12220;50.194;18.948;2024-02-26T00:50:37;100918.64;;;4.45;66.89
24013;BME280;12220;50.194;18.948;2024-02-26T00:52:39;100919.51;;;4.45;67.01
24013;BME280;12220;50.194;18.948;2024-02-26T00:54:40;100918.64;;;4.45;67.04
24013;BME280;12220;50.194;18.948;2024-02-26T00:56:50;100918.64;;;4.45;67.11
24013;BME280;12220;50.194;18.948;2024-02-26T00:58:51;100922.22;;;4.45;67.18
24013;BME280;12220;50.194;18.948;2024-02-26T01:00:53;100922.22;;;4.45;67.15
24013;BME280;12220;50.194;18.948;2024-02-26T01:02:54;100920.55;;;4.43;67.19
24013;BME280;12220;50.194;18.948;2024-02-26T01:05:11;100919.71;;;4.41;67.30
24013;BME280;12220;50.194;18.948;2024-02-26T01:07:29;100916.12;;;4.40;67.50
24013;BME280;12220;50.194;18.948;2024-02-26T01:09:51;100912.44;;;4.41;67.66
24013;BME280;12220;50.194;18.948;2024-02-26T01:11:55;100913.21;;;4.45;67.77
24013;BME280;12220;50.194;18.948;2024-02-26T01:13:56;100901.37;;;4.47;67.78
24013;BME280;12220;50.194;18.948;2024-02-26T01:15:59;100853.80;;;4.18;67.79
24013;BME280;12220;50.194;18.948;2024-02-26T01:18:03;100911.06;;;4.53;67.86
24013;BME280;12220;50.194;18.948;2024-02-26T01:20:05;100911.94;;;4.53;67.92
24013;BME280;12220;50.194;18.948;2024-02-26T01:22:07;100910.03;;;4.56;68.00
24013;BME280;12220;50.194;18.948;2024-02-26T01:24:08;100912.62;;;4.59;67.93
24013;BME280;12220;50.194;18.948;2024-02-26T01:26:18;100907.19;;;4.59;67.79
24013;BME280;12220;50.194;18.948;2024-02-26T01:28:19;100916.37;;;4.56;67.74
24013;BME280;12220;50.194;18.948;2024-02-26T01:30:21;100897.58;;;4.51;67.71
24013;BME280;12220;50.194;18.948;2024-02-26T01:32:22;100905.75;;;4.50;67.82
24013;BME280;12220;50.194;18.948;2024-02-26T01:34:33;100906.85;;;4.46;67.80
24013;BME280;12220;50.194;18.948;2024-02-26T01:36:35;100908.79;;;4.42;67.91
24013;BME280;12220;50.194;18.948;2024-02-26T01:38:36;100906.22;;;4.39;67.91
24013;BME280;12220;50.194;18.948;2024-02-26T01:40:38;100897.34;;;4.35;68.04
24013;BME280;12220;50.194;18.948;2024-02-26T01:42:48;100907.29;;;4.35;68.19
24013;BME280;12220;50.194;18.948;2024-02-26T01:44:50;100902.83;;;4.34;68.19
24013;BME280;12220;50.194;18.948;2024-02-26T01:46:51;100894.70;;;4.34;68.22
24013;BME280;12220;50.194;18.948;2024-02-26T01:48:54;100895.57;;;4.34;68.33
24013;BME280;12220;50.194;18.948;2024-02-26T01:51:04;100901.86;;;4.35;68.25
24013;BME280;12220;50.194;18.948;2024-02-26T01:53:06;100894.73;;;4.32;68.29
24013;BME280;12220;50.194;18.948;2024-02-26T01:55:09;100901.86;;;4.35;68.39
24013;BME280;12220;50.194;18.948;2024-02-26T01:57:11;100891.02;;;4.35;68.47
24013;BME280;12220;50.194;18.948;2024-02-26T01:59:19;100884.66;;;4.36;68.38
24013;BME280;12220;50.194;18.948;2024-02-26T02:01:22;100900.92;;;4.36;68.38
24013;BME280;12220;50.194;18.948;2024-02-26T02:03:26;100897.34;;;4.35;68.41
24013;BME280;12220;50.194;18.948;2024-02-26T02:05:28;100900.12;;;4.34;68.31
24013;BME280;12220;50.194;18.948;2024-02-26T02:07:34;100903.89;;;4.30;68.23
24013;BME280;12220;50.194;18.948;2024-02-26T02:09:36;100905.91;;;4.25;68.36
24013;BME280;12220;50.194;18.948;2024-02-26T02:11:38;100889.77;;;4.22;68.54
24013;BME280;12220;50.194;18.948;2024-02-26T02:13:40;100893.41;;;4.21;68.58
24013;BME280;12220;50.194;18.948;2024-02-26T02:15:49;100898.84;;;4.21;68.60
24013;BME280;12220;50.194;18.948;2024-02-26T02:17:50;100893.55;;;4.17;68.68
24013;BME280;12220;50.194;18.948;2024-02-26T02:19:52;100892.60;;;4.18;68.79
24013;BME280;12220;50.194;18.948;2024-02-26T02:21:53;100892.67;;;4.17;68.68
24013;BME280;12220;50.194;18.948;2024-02-26T02:24:04;100900.94;;;4.14;68.55
24013;BME280;12220;50.194;18.948;2024-02-26T02:26:06;100902.13;;;4.07;68.46
24013;BME280;12220;50.194;18.948;2024-02-26T02:28:07;100899.77;;;3.97;68.44
24013;BME280;12220;50.194;18.948;2024-02-26T02:30:09;100901.86;;;3.91;68.62
24013;BME280;12220;50.194;18.948;2024-02-26T02:32:20;100904.91;;;3.81;68.63
24013;BME280;12220;50.194;18.948;2024-02-26T02:34:22;100898.01;;;3.74;68.88
24013;BME280;12220;50.194;18.948;2024-02-26T02:36:23;100904.48;;;3.70;69.04
24013;BME280;12220;50.194;18.948;2024-02-26T02:38:25;100902.83;;;3.66;69.06
24013;BME280;12220;50.194;18.948;2024-02-26T02:40:35;100894.83;;;3.63;69.20
24013;BME280;12220;50.194;18.948;2024-02-26T02:42:37;100899.34;;;3.62;69.32
24013;BME280;12220;50.194;18.948;2024-02-26T02:44:38;100893.05;;;3.62;69.40
24013;BME280;12220;50.194;18.948;2024-02-26T02:46:40;100899.34;;;3.62;69.45
24013;BME280;12220;50.194;18.948;2024-02-26T02:48:50;100902.05;;;3.62;69.51
24013;BME280;12220;50.194;18.948;2024-02-26T02:50:52;100896.63;;;3.62;69.54
24013;BME280;12220;50.194;18.948;2024-02-26T02:52:53;100901.99;;;3.64;69.51
24013;BME280;12220;50.194;18.948;2024-02-26T02:54:55;100901.99;;;3.64;69.44
24013;BME280;12220;50.194;18.948;2024-02-26T02:57:05;100897.59;;;3.61;69.37
24013;BME280;12220;50.194;18.948;2024-02-26T02:59:06;100897.66;;;3.60;69.45
24013;BME280;12220;50.194;18.948;2024-02-26T03:01:08;100885.98;;;3.58;69.47
24013;BME280;12220;50.194;18.948;2024-02-26T03:03:09;100885.17;;;3.56;69.57
24013;BME280;12220;50.194;18.948;2024-02-26T03:05:20;100889.60;;;3.58;69.69
24013;BME280;12220;50.194;18.948;2024-02-26T03:07:22;100888.70;;;3.58;69.71
24013;BME280;12220;50.194;18.948;2024-02-26T03:09:23;100882.41;;;3.57;69.70
24013;BME280;12220;50.194;18.948;2024-02-26T03:11:24;100879.63;;;3.59;69.67
24013;BME280;12220;50.194;18.948;2024-02-26T03:13:35;100884.98;;;3.60;69.66
24013;BME280;12220;50.194;18.948;2024-02-26T03:15:37;100879.63;;;3.59;69.60
24013;BME280;12220;50.194;18.948;2024-02-26T03:17:39;100881.48;;;3.58;69.56
24013;BME280;12220;50.194;18.948;2024-02-26T03:19:40;100879.70;;;3.57;69.56
24013;BME280;12220;50.194;18.948;2024-02-26T03:21:50;100877.92;;;3.56;69.59
24013;BME280;12220;50.194;18.948;2024-02-26T03:23:52;100879.76;;;3.56;69.59
24013;BME280;12220;50.194;18.948;2024-02-26T03:25:54;100881.55;;;3.55;69.51
24013;BME280;12220;50.194;18.948;2024-02-26T03:27:56;100880.75;;;3.53;69.52
24013;BME280;12220;50.194;18.948;2024-02-26T03:30:06;100883.52;;;3.52;69.53
24013;BME280;12220;50.194;18.948;2024-02-26T03:32:08;100875.46;;;3.50;69.58
24013;BME280;12220;50.194;18.948;2024-02-26T03:34:09;100885.42;;;3.49;69.56
24013;BME280;12220;50.194;18.948;2024-02-26T03:36:14;100880.01;;;3.49;69.71
24013;BME280;12220;50.194;18.948;2024-02-26T03:38:21;100871.81;;;3.51;69.83
24013;BME280;12220;50.194;18.948;2024-02-26T03:40:22;100878.98;;;3.52;69.85
24013;BME280;12220;50.194;18.948;2024-02-26T03:42:25;100871.81;;;3.51;69.70
24013;BME280;12220;50.194;18.948;2024-02-26T03:44:26;100873.73;;;3.47;69.57
24013;BME280;12220;50.194;18.948;2024-02-26T03:46:36;100862.17;;;3.44;69.64
24013;BME280;12220;50.194;18.948;2024-02-26T03:48:37;100860.45;;;3.41;69.62
24013;BME280;12220;50.194;18.948;2024-02-26T03:50:39;100863.22;;;3.40;69.81
24013;BME280;12220;50.194;18.948;2024-02-26T03:52:40;100861.45;;;3.39;69.89
24013;BME280;12220;50.194;18.948;2024-02-26T03:54:51;100857.81;;;3.40;69.83
24013;BME280;12220;50.194;18.948;2024-02-26T03:56:52;100854.20;;;3.39;69.80
24013;BME280;12220;50.194;18.948;2024-02-26T03:58:54;100861.45;;;3.39;69.85
24013;BME280;12220;50.194;18.948;2024-02-26T04:00:55;100856.04;;;3.39;69.73
24013;BME280;12220;50.194;18.948;2024-02-26T04:03:06;100849.87;;;3.35;69.57
24013;BME280;12220;50.194;18.948;2024-02-26T04:05:11;100848.22;;;3.31;69.64
24013;BME280;12220;50.194;18.948;2024-02-26T04:07:12;100855.49;;;3.29;69.79
24013;BME280;12220;50.194;18.948;2024-02-26T04:09:14;100846.50;;;3.28;69.69
24013;BME280;12220;50.194;18.948;2024-02-26T04:11:21;100848.45;;;3.25;69.66
24013;BME280;12220;50.194;18.948;2024-02-26T04:13:25;100847.67;;;3.21;69.80
24013;BME280;12220;50.194;18.948;2024-02-26T04:15:27;100839.55;;;3.21;69.92
24013;BME280;12220;50.194;18.948;2024-02-26T04:17:28;100843.13;;;3.22;70.02
24013;BME280;12220;50.194;18.948;2024-02-26T04:19:36;100836.79;;;3.23;69.98
24013;BME280;12220;50.194;18.948;2024-02-26T04:21:40;100835.92;;;3.22;69.94
24013;BME280;12220;50.194;18.948;2024-02-26T04:23:42;100840.43;;;3.22;69.96
24013;BME280;12220;50.194;18.948;2024-02-26T04:25:43;100839.49;;;3.23;70.02
24013;BME280;12220;50.194;18.948;2024-02-26T04:27:52;100837.70;;;3.23;69.99
24013;BME280;12220;50.194;18.948;2024-02-26T04:29:53;100838.63;;;3.22;69.91
24013;BME280;12220;50.194;18.948;2024-02-26T04:31:54;100846.80;;;3.21;69.85
24013;BME280;12220;50.194;18.948;2024-02-26T04:33:55;100839.63;;;3.20;69.84
24013;BME280;12220;50.194;18.948;2024-02-26T04:36:13;100839.67;;;3.18;69.92
24013;BME280;12220;50.194;18.948;2024-02-26T04:38:16;100834.26;;;3.18;70.01
24013;BME280;12220;50.194;18.948;2024-02-26T04:40:17;100841.52;;;3.18;69.85
24013;BME280;12220;50.194;18.948;2024-02-26T04:42:18;100835.25;;;3.16;69.79
24013;BME280;12220;50.194;18.948;2024-02-26T04:44:22;100656.21;;;1.59;69.66
24013;BME280;12220;50.194;18.948;2024-02-26T04:46:23;100828.25;;;3.10;69.89
24013;BME280;12220;50.194;18.948;2024-02-26T04:48:27;100831.98;;;3.07;69.97
24013;BME280;12220;50.194;18.948;2024-02-26T04:50:29;100828.43;;;3.05;69.98
24013;BME280;12220;50.194;18.948;2024-02-26T04:52:37;100821.24;;;3.04;69.99
24013;BME280;12220;50.194;18.948;2024-02-26T04:54:38;100823.13;;;3.02;69.98
24013;BME280;12220;50.194;18.948;2024-02-26T04:56:43;100822.39;;;2.99;69.88
24013;BME280;12220;50.194;18.948;2024-02-26T04:58:45;100820.66;;;2.96;69.84
24013;BME280;12220;50.194;18.948;2024-02-26T05:00:52;100820.91;;;2.90;69.87
24013;BME280;12220;50.194;18.948;2024-02-26T05:02:53;100812.06;;;2.85;70.03
24013;BME280;12220;50.194;18.948;2024-02-26T05:04:55;100827.41;;;2.84;70.13
24013;BME280;12220;50.194;18.948;2024-02-26T05:06:56;100826.52;;;2.84;70.28
24013;BME280;12220;50.194;18.948;2024-02-26T05:09:07;100824.83;;;2.81;70.24
24013;BME280;12220;50.194;18.948;2024-02-26T05:11:09;100832.16;;;2.77;70.18
24013;BME280;12220;50.194;18.948;2024-02-26T05:13:10;100830.43;;;2.75;70.21
24013;BME280;12220;50.194;18.948;2024-02-26T05:15:11;100830.55;;;2.72;70.27
24013;BME280;12220;50.194;18.948;2024-02-26T05:17:22;100833.38;;;2.69;70.31
24013;BME280;12220;50.194;18.948;2024-02-26T05:19:24;100835.38;;;2.64;70.37
24013;BME280;12220;50.194;18.948;2024-02-26T05:21:25;100835.40;;;2.62;70.43
24013;BME280;12220;50.194;18.948;2024-02-26T05:23:27;100828.36;;;2.58;70.50
24013;BME280;12220;50.194;18.948;2024-02-26T05:25:38;100835.63;;;2.56;70.63
24013;BME280;12220;50.194;18.948;2024-02-26T05:27:39;100828.49;;;2.53;70.72
24013;BME280;12220;50.194;18.948;2024-02-26T05:29:41;100828.55;;;2.52;70.82
24013;BME280;12220;50.194;18.948;2024-02-26T05:31:42;100836.72;;;2.50;70.92
24013;BME280;12220;50.194;18.948;2024-02-26T05:33:53;100841.20;;;2.51;71.03
24013;BME280;12220;50.194;18.948;2024-02-26T05:35:54;100842.92;;;2.54;71.09
24013;BME280;12220;50.194;18.948;2024-02-26T05:37:56;100837.34;;;2.58;71.17
24013;BME280;12220;50.194;18.948;2024-02-26T05:39:57;100834.53;;;2.61;71.13
24013;BME280;12220;50.194;18.948;2024-02-26T05:42:08;100839.88;;;2.63;71.05
24013;BME280;12220;50.194;18.948;2024-02-26T05:44:11;100843.48;;;2.64;70.99
24013;BME280;12220;50.194;18.948;2024-02-26T05:46:12;100852.47;;;2.64;70.96
24013;BME280;12220;50.194;18.948;2024-02-26T05:48:14;100844.35;;;2.64;70.97
24013;BME280;12220;50.194;18.948;2024-02-26T05:50:23;100838.95;;;2.64;71.00
24013;BME280;12220;50.194;18.948;2024-02-26T05:52:25;100849.77;;;2.64;71.09
24013;BME280;12220;50.194;18.948;2024-02-26T05:54:26;100852.41;;;2.66;71.21
24013;BME280;12220;50.194;18.948;2024-02-26T05:56:27;100855.98;;;2.66;71.28
24013;BME280;12220;50.194;18.948;2024-02-26T05:58:38;100860.36;;;2.70;71.36
24013;BME280;12220;50.194;18.948;2024-02-26T06:00:40;100847.68;;;2.72;71.41
24013;BME280;12220;50.194;18.948;2024-02-26T06:02:41;100858.44;;;2.74;71.45
24013;BME280;12220;50.194;18.948;2024-02-26T06:04:42;100866.39;;;2.78;71.48
24013;BME280;12220;50.194;18.948;2024-02-26T06:06:53;100865.41;;;2.79;71.49
24013;BME280;12220;50.194;18.948;2024-02-26T06:08:55;100859.99;;;2.81;71.44
24013;BME280;12220;50.194;18.948;2024-02-26T06:10:56;100862.64;;;2.83;71.38
24013;BME280;12220;50.194;18.948;2024-02-26T06:12:57;100859.99;;;2.81;71.34
24013;BME280;12220;50.194;18.948;2024-02-26T06:15:09;100861.79;;;2.81;71.38
24013;BME280;12220;50.194;18.948;2024-02-26T06:17:11;100864.49;;;2.81;71.45
24013;BME280;12220;50.194;18.948;2024-02-26T06:19:12;100863.67;;;2.78;71.53
24013;BME280;12220;50.194;18.948;2024-02-26T06:21:14;100862.84;;;2.76;71.43
24013;BME280;12220;50.194;18.948;2024-02-26T06:23:24;100867.37;;;2.76;71.61
24013;BME280;12220;50.194;18.948;2024-02-26T06:25:25;100874.66;;;2.74;71.77
24013;BME280;12220;50.194;18.948;2024-02-26T06:27:27;100863.90;;;2.72;71.91
24013;BME280;12220;50.194;18.948;2024-02-26T06:29:28;100869.31;;;2.72;72.05
24013;BME280;12220;50.194;18.948;2024-02-26T06:31:39;100869.27;;;2.74;72.18
24013;BME280;12220;50.194;18.948;2024-02-26T06:33:40;100880.02;;;2.75;72.29
24013;BME280;12220;50.194;18.948;2024-02-26T06:35:42;100878.18;;;2.76;72.42
24013;BME280;12220;50.194;18.948;2024-02-26T06:37:44;100882.60;;;2.78;72.52
24013;BME280;12220;50.194;18.948;2024-02-26T06:39:54;100880.71;;;2.81;72.61
24013;BME280;12220;50.194;18.948;2024-02-26T06:41:55;100875.19;;;2.84;72.71
24013;BME280;12220;50.194;18.948;2024-02-26T06:44:02;100874.20;;;2.86;72.86
24013;BME280;12220;50.194;18.948;2024-02-26T06:46:03;100878.63;;;2.89;72.99
24013;BME280;12220;50.194;18.948;2024-02-26T06:48:09;100878.52;;;2.92;73.13
24013;BME280;12220;50.194;18.948;2024-02-26T06:50:12;100878.41;;;2.95;73.25
24013;BME280;12220;50.194;18.948;2024-02-26T06:52:14;100885.48;;;2.99;73.37
24013;BME280;12220;50.194;18.948;2024-02-26T06:54:16;100875.41;;;3.03;73.50
24013;BME280;12220;50.194;18.948;2024-02-26T06:56:24;100884.25;;;3.08;73.58
24013;BME280;12220;50.194;18.948;2024-02-26T06:58:25;100873.20;;;3.14;73.71
24013;BME280;12220;50.194;18.948;2024-02-26T07:00:27;100872.09;;;3.20;73.91
24013;BME280;12220;50.194;18.948;2024-02-26T07:02:28;100885.20;;;3.30;74.06
24013;BME280;12220;50.194;18.948;2024-02-26T07:04:39;100875.85;;;3.39;74.02
24013;BME280;12220;50.194;18.948;2024-02-26T07:06:41;100878.23;;;3.48;74.17
24013;BME280;12220;50.194;18.948;2024-02-26T07:08:44;100882.41;;;3.57;74.25
24013;BME280;12220;50.194;18.948;2024-02-26T07:10:49;100892.87;;;3.66;74.38
24013;BME280;12220;50.194;18.948;2024-02-26T07:12:54;100880.78;;;3.75;74.49
24013;BME280;12220;50.194;18.948;2024-02-26T07:14:59;100891.15;;;3.88;74.74
24013;BME280;12220;50.194;18.948;2024-02-26T07:17:01;100882.52;;;4.00;74.91
24013;BME280;12220;50.194;18.948;2024-02-26T07:19:03;100881.18;;;4.10;74.97
24013;BME280;12220;50.194;18.948;2024-02-26T07:21:11;100887.06;;;4.22;75.03
24013;BME280;12220;50.194;18.948;2024-02-26T07:23:13;100882.07;;;4.33;74.96
24013;BME280;12220;50.194;18.948;2024-02-26T07:25:14;100880.94;;;4.39;74.93
24013;BME280;12220;50.194;18.948;2024-02-26T07:27:18;100883.25;;;4.48;74.87
24013;BME280;12220;50.194;18.948;2024-02-26T07:29:26;100872.06;;;4.56;74.90
24013;BME280;12220;50.194;18.948;2024-02-26T07:31:27;100878.13;;;4.62;74.96
24013;BME280;12220;50.194;18.948;2024-02-26T07:33:29;100872.35;;;4.70;75.00
24013;BME280;12220;50.194;18.948;2024-02-26T07:35:30;100875.69;;;4.77;75.02
24013;BME280;12220;50.194;18.948;2024-02-26T07:37:40;100868.98;;;4.85;75.00
24013;BME280;12220;50.194;18.948;2024-02-26T07:39:41;100875.91;;;4.93;75.09
24013;BME280;12220;50.194;18.948;2024-02-26T07:41:42;100871.96;;;5.00;75.21
24013;BME280;12220;50.194;18.948;2024-02-26T07:43:50;100871.54;;;5.09;75.33
24013;BME280;12220;50.194;18.948;2024-02-26T07:45:55;100872.88;;;5.19;75.44
24013;BME280;12220;50.194;18.948;2024-02-26T07:47:56;100867.98;;;5.28;75.53
24013;BME280;12220;50.194;18.948;2024-02-26T07:49:58;100872.91;;;5.38;75.69
24013;BME280;12220;50.194;18.948;2024-02-26T07:51:59;100613.62;;;3.95;75.59
24013;BME280;12220;50.194;18.948;2024-02-26T07:54:10;100864.63;;;5.61;75.90
24013;BME280;12220;50.194;18.948;2024-02-26T07:56:11;100866.78;;;5.73;76.03
24013;BME280;12220;50.194;18.948;2024-02-26T07:58:13;100867.15;;;5.84;76.12
24013;BME280;12220;50.194;18.948;2024-02-26T08:00:14;100871.93;;;5.98;76.18
24013;BME280;12220;50.194;18.948;2024-02-26T08:02:26;100863.11;;;6.12;76.35
24013;BME280;12220;50.194;18.948;2024-02-26T08:04:30;100871.46;;;6.26;76.59
24013;BME280;12220;50.194;18.948;2024-02-26T08:06:32;100868.02;;;6.40;76.74
24013;BME280;12220;50.194;18.948;2024-02-26T08:08:33;100864.61;;;6.54;76.52
24013;BME280;12220;50.194;18.948;2024-02-26T08:10:41;100863.88;;;6.68;76.72
24013;BME280;12220;50.194;18.948;2024-02-26T08:12:42;100873.20;;;6.82;76.82
24013;BME280;12220;50.194;18.948;2024-02-26T08:14:45;100871.49;;;6.96;76.75
24013;BME280;12220;50.194;18.948;2024-02-26T08:16:47;100874.54;;;7.08;76.65
24013;BME280;12220;50.194;18.948;2024-02-26T08:18:56;100872.99;;;7.20;76.57
24013;BME280;12220;50.194;18.948;2024-02-26T08:20:57;100867.76;;;7.32;76.49
24013;BME280;12220;50.194;18.948;2024-02-26T08:22:59;100879.02;;;7.42;76.40
24013;BME280;12220;50.194;18.948;2024-02-26T08:25:00;100870.35;;;7.52;76.23
24013;BME280;12220;50.194;18.948;2024-02-26T08:27:11;100872.47;;;7.62;76.16
24013;BME280;12220;50.194;18.948;2024-02-26T08:29:12;100873.80;;;7.71;76.11
24013;BME280;12220;50.194;18.948;2024-02-26T08:31:14;100876.90;;;7.81;76.09
24013;BME280;12220;50.194;18.948;2024-02-26T08:33:15;100867.23;;;7.91;76.04
24013;BME280;12220;50.194;18.948;2024-02-26T08:35:26;100865.73;;;8.01;75.89
24013;BME280;12220;50.194;18.948;2024-02-26T08:37:27;100863.36;;;8.11;75.67
24013;BME280;12220;50.194;18.948;2024-02-26T08:39:29;100867.40;;;8.20;75.48
24013;BME280;12220;50.194;18.948;2024-02-26T08:41:30;100866.07;;;8.27;75.33
24013;BME280;12220;50.194;18.948;2024-02-26T08:43:41;100866.39;;;8.37;75.27
24013;BME280;12220;50.194;18.948;2024-02-26T08:45:42;100869.66;;;8.44;75.15
24013;BME280;12220;50.194;18.948;2024-02-26T08:47:47;100868.27;;;8.52;75.04
24013;BME280;12220;50.194;18.948;2024-02-26T08:49:48;100853.17;;;8.61;74.87
24013;BME280;12220;50.194;18.948;2024-02-26T08:51:56;100861.80;;;8.69;74.73
24013;BME280;12220;50.194;18.948;2024-02-26T08:53:57;100623.91;;;7.41;74.47
24013;BME280;12220;50.194;18.948;2024-02-26T08:55:59;100856.09;;;8.88;74.47
24013;BME280;12220;50.194;18.948;2024-02-26T08:58:00;100857.38;;;8.97;74.31
24013;BME280;12220;50.194;18.948;2024-02-26T09:00:11;100857.50;;;9.10;74.10
24013;BME280;12220;50.194;18.948;2024-02-26T09:02:13;100858.59;;;9.22;73.89
24013;BME280;12220;50.194;18.948;2024-02-26T09:04:14;100869.70;;;9.33;73.71
24013;BME280;12220;50.194;18.948;2024-02-26T09:06:15;100865.41;;;9.43;73.53
24013;BME280;12220;50.194;18.948;2024-02-26T09:08:26;100868.13;;;9.58;73.25
24013;BME280;12220;50.194;18.948;2024-02-26T09:10:30;100870.97;;;9.71;72.93
24013;BME280;12220;50.194;18.948;2024-02-26T09:12:37;100860.12;;;9.84;72.64
24013;BME280;12220;50.194;18.948;2024-02-26T09:14:39;100857.36;;;9.98;72.18
24013;BME280;12220;50.194;18.948;2024-02-26T09:16:41;100858.30;;;10.11;71.78
24013;BME280;12220;50.194;18.948;2024-02-26T09:18:42;100859.44;;;10.22;71.34
24013;BME280;12220;50.194;18.948;2024-02-26T09:20:43;100859.81;;;10.30;70.78
24013;BME280;12220;50.194;18.948;2024-02-26T09:22:46;100861.19;;;10.37;70.35
24013;BME280;12220;50.194;18.948;2024-02-26T09:24:56;100855.29;;;10.43;70.17
24013;BME280;12220;50.194;18.948;2024-02-26T09:26:57;100854.87;;;10.50;69.98
24013;BME280;12220;50.194;18.948;2024-02-26T09:28:58;100853.58;;;10.55;69.88
24013;BME280;12220;50.194;18.948;2024-02-26T09:31:00;100845.94;;;10.60;69.70
24013;BME280;12220;50.194;18.948;2024-02-26T09:33:11;100851.63;;;10.70;69.59
24013;BME280;12220;50.194;18.948;2024-02-26T09:35:12;100849.57;;;10.74;69.50
24013;BME280;12220;50.194;18.948;2024-02-26T09:37:14;100814.27;;;10.56;69.35
24013;BME280;12220;50.194;18.948;2024-02-26T09:39:15;100855.09;;;10.87;69.23
24013;BME280;12220;50.194;18.948;2024-02-26T09:41:28;100854.65;;;10.93;69.21
24013;BME280;12220;50.194;18.948;2024-02-26T09:43:35;100859.59;;;11.01;69.04
24013;BME280;12220;50.194;18.948;2024-02-26T09:45:42;100861.70;;;11.10;68.94
24013;BME280;12220;50.194;18.948;2024-02-26T09:47:44;100859.27;;;11.18;68.64
24013;BME280;12220;50.194;18.948;2024-02-26T09:49:48;100859.62;;;11.26;68.34
24013;BME280;12220;50.194;18.948;2024-02-26T09:51:50;100857.21;;;11.34;68.13
24013;BME280;12220;50.194;18.948;2024-02-26T09:53:53;100853.92;;;11.42;67.98
24013;BME280;12220;50.194;18.948;2024-02-26T09:55:54;100858.72;;;11.51;67.85
24013;BME280;12220;50.194;18.948;2024-02-26T09:58:05;100857.30;;;11.59;67.71
24013;BME280;12220;50.194;18.948;2024-02-26T10:00:17;100859.61;;;11.65;67.66
24013;BME280;12220;50.194;18.948;2024-02-26T10:02:21;100849.83;;;11.74;67.52
24013;BME280;12220;50.194;18.948;2024-02-26T10:04:23;100852.12;;;11.80;67.23
24013;BME280;12220;50.194;18.948;2024-02-26T10:06:27;100851.55;;;11.88;67.05
24013;BME280;12220;50.194;18.948;2024-02-26T10:08:29;100853.94;;;11.92;66.86
24013;BME280;12220;50.194;18.948;2024-02-26T10:10:32;100847.95;;;12.00;66.76
24013;BME280;12220;50.194;18.948;2024-02-26T10:12:34;100839.23;;;12.06;66.57
24013;BME280;12220;50.194;18.948;2024-02-26T10:14:39;100841.27;;;12.15;66.50
24013;BME280;12220;50.194;18.948;2024-02-26T10:16:41;100845.30;;;12.23;66.47
24013;BME280;12220;50.194;18.948;2024-02-26T10:18:50;100842.88;;;12.31;66.27
24013;BME280;12220;50.194;18.948;2024-02-26T10:21:01;100839.55;;;12.38;65.99
24013;BME280;12220;50.194;18.948;2024-02-26T10:23:03;100849.80;;;12.48;65.67
24013;BME280;12220;50.194;18.948;2024-02-26T10:25:16;100837.13;;;12.58;65.47
24013;BME280;12220;50.194;18.948;2024-02-26T10:27:18;100833.02;;;12.64;65.07
24013;BME280;12220;50.194;18.948;2024-02-26T10:29:20;100836.93;;;12.72;64.81
24013;BME280;12220;50.194;18.948;2024-02-26T10:31:22;100835.34;;;12.81;64.36
24013;BME280;12220;50.194;18.948;2024-02-26T10:33:33;100830.00;;;12.91;64.36
24013;BME280;12220;50.194;18.948;2024-02-26T10:35:37;100839.51;;;12.98;64.24
24013;BME280;12220;50.194;18.948;2024-02-26T10:37:41;100840.91;;;13.04;63.59
24013;BME280;12220;50.194;18.948;2024-02-26T10:41:59;100833.83;;;13.24;63.60
24013;BME280;12220;50.194;18.948;2024-02-26T10:44:11;100825.94;;;13.31;63.40
24013;BME280;12220;50.194;18.948;2024-02-26T10:46:14;100834.75;;;13.36;62.87
24013;BME280;12220;50.194;18.948;2024-02-26T10:48:15;100834.25;;;13.42;62.82